sensor_id;sensor_type;location;lat;lon;timestamp;P1;durP1;ratioP1;P2;durP2;ratioP2
45326;SDS011;31062;49.678;24.560;2022-09-09T00:01:01;10.38;;;6.05;;
45326;SDS011;31062;49.678;24.560;2022-09-09T00:03:53;10.52;;;5.78;;
45326;SDS011;31062;49.678;24.560;2022-09-09T00:13:24;8.93;;;5.97;;
45326;SDS011;31062;49.678;24.560;2022-09-09T00:16:20;13.60;;;5.63;;
45326;SDS011;31062;49.678;24.560;2022-09-09T00:22:12;12.20;;;5.43;;
45326;SDS011;31062;49.678;24.560;2022-09-09T00:25:05;16.98;;;5.50;;
45326;SDS011;31062;49.678;24.560;2022-09-09T00:28:02;10.43;;;5.40;;
45326;SDS011;31062;49.678;24.560;2022-09-09T00:30:49;11.27;;;4.95;;
45326;SDS011;31062;49.678;24.560;2022-09-09T00:33:34;9.18;;;5.28;;
45326;SDS011;31062;49.678;24.560;2022-09-09T00:36:23;15.98;;;5.60;;
45326;SDS011;31062;49.678;24.560;2022-09-09T00:42:28;11.13;;;5.60;;
45326;SDS011;31062;49.678;24.560;2022-09-09T00:48:17;10.40;;;5.30;;
45326;SDS011;31062;49.678;24.560;2022-09-09T00:51:09;12.68;;;5.00;;
45326;SDS011;31062;49.678;24.560;2022-09-09T01:00:23;5.40;;;4.72;;
45326;SDS011;31062;49.678;24.560;2022-09-09T01:06:21;9.85;;;5.13;;
45326;SDS011;31062;49.678;24.560;2022-09-09T01:12:24;7.25;;;4.70;;
45326;SDS011;31062;49.678;24.560;2022-09-09T01:15:22;14.43;;;5.47;;
45326;SDS011;31062;49.678;24.560;2022-09-09T01:18:12;13.88;;;4.72;;
45326;SDS011;31062;49.678;24.560;2022-09-09T01:28:19;7.70;;;4.90;;
45326;SDS011;31062;49.678;24.560;2022-09-09T01:31:15;9.27;;;4.95;;
45326;SDS011;31062;49.678;24.560;2022-09-09T01:34:10;7.50;;;4.50;;
45326;SDS011;31062;49.678;24.560;2022-09-09T01:37:05;13.10;;;4.60;;
45326;SDS011;31062;49.678;24.560;2022-09-09T01:39:54;11.90;;;4.88;;
45326;SDS011;31062;49.678;24.560;2022-09-09T01:42:40;9.23;;;4.53;;
45326;SDS011;31062;49.678;24.560;2022-09-09T01:45:26;13.77;;;5.97;;
45326;SDS011;31062;49.678;24.560;2022-09-09T01:48:11;8.50;;;4.43;;
45326;SDS011;31062;49.678;24.560;2022-09-09T01:51:03;10.88;;;4.70;;
45326;SDS011;31062;49.678;24.560;2022-09-09T01:53:49;15.38;;;4.95;;
45326;SDS011;31062;49.678;24.560;2022-09-09T02:09:38;6.55;;;4.00;;
45326;SDS011;31062;49.678;24.560;2022-09-09T02:12:29;10.60;;;4.88;;
45326;SDS011;31062;49.678;24.560;2022-09-09T02:15:26;10.90;;;4.43;;
45326;SDS011;31062;49.678;24.560;2022-09-09T02:18:56;11.10;;;3.88;;
45326;SDS011;31062;49.678;24.560;2022-09-09T02:22:02;6.53;;;3.95;;
45326;SDS011;31062;49.678;24.560;2022-09-09T02:24:49;10.40;;;4.68;;
45326;SDS011;31062;49.678;24.560;2022-09-09T02:27:43;11.65;;;4.95;;
45326;SDS011;31062;49.678;24.560;2022-09-09T02:30:32;11.25;;;4.70;;
45326;SDS011;31062;49.678;24.560;2022-09-09T02:33:22;11.48;;;4.70;;
45326;SDS011;31062;49.678;24.560;2022-09-09T02:36:11;11.00;;;4.60;;
45326;SDS011;31062;49.678;24.560;2022-09-09T02:39:02;9.55;;;4.53;;
45326;SDS011;31062;49.678;24.560;2022-09-09T02:41:53;7.75;;;3.90;;
45326;SDS011;31062;49.678;24.560;2022-09-09T02:44:46;7.63;;;4.80;;
45326;SDS011;31062;49.678;24.560;2022-09-09T02:47:38;8.13;;;4.65;;
45326;SDS011;31062;49.678;24.560;2022-09-09T02:53:32;9.35;;;4.47;;
45326;SDS011;31062;49.678;24.560;2022-09-09T02:56:23;6.68;;;4.90;;
45326;SDS011;31062;49.678;24.560;2022-09-09T03:02:01;4.78;;;4.25;;
45326;SDS011;31062;49.678;24.560;2022-09-09T03:04:49;8.30;;;4.57;;
45326;SDS011;31062;49.678;24.560;2022-09-09T03:07:37;5.78;;;4.30;;
45326;SDS011;31062;49.678;24.560;2022-09-09T03:10:26;11.23;;;4.88;;
45326;SDS011;31062;49.678;24.560;2022-09-09T03:13:11;5.85;;;3.85;;
45326;SDS011;31062;49.678;24.560;2022-09-09T03:16:00;8.65;;;4.30;;
45326;SDS011;31062;49.678;24.560;2022-09-09T03:18:49;8.85;;;4.65;;
45326;SDS011;31062;49.678;24.560;2022-09-09T03:21:35;7.68;;;4.95;;
45326;SDS011;31062;49.678;24.560;2022-09-09T03:24:20;7.25;;;4.90;;
45326;SDS011;31062;49.678;24.560;2022-09-09T03:27:07;13.10;;;5.82;;
45326;SDS011;31062;49.678;24.560;2022-09-09T03:29:54;13.98;;;5.65;;
45326;SDS011;31062;49.678;24.560;2022-09-09T03:32:42;16.63;;;4.88;;
45326;SDS011;31062;49.678;24.560;2022-09-09T03:35:32;6.97;;;4.32;;
45326;SDS011;31062;49.678;24.560;2022-09-09T03:38:18;6.13;;;4.57;;
45326;SDS011;31062;49.678;24.560;2022-09-09T03:41:04;9.85;;;4.38;;
45326;SDS011;31062;49.678;24.560;2022-09-09T03:43:53;13.13;;;4.85;;
45326;SDS011;31062;49.678;24.560;2022-09-09T03:46:40;9.25;;;4.93;;
45326;SDS011;31062;49.678;24.560;2022-09-09T03:49:26;10.82;;;4.60;;
45326;SDS011;31062;49.678;24.560;2022-09-09T03:52:14;7.18;;;4.45;;
45326;SDS011;31062;49.678;24.560;2022-09-09T03:55:08;9.05;;;4.75;;
45326;SDS011;31062;49.678;24.560;2022-09-09T03:57:54;7.78;;;4.90;;
45326;SDS011;31062;49.678;24.560;2022-09-09T04:00:40;9.25;;;4.40;;
45326;SDS011;31062;49.678;24.560;2022-09-09T04:03:30;10.30;;;4.72;;
45326;SDS011;31062;49.678;24.560;2022-09-09T04:06:16;10.02;;;4.60;;
45326;SDS011;31062;49.678;24.560;2022-09-09T04:09:04;4.78;;;3.83;;
45326;SDS011;31062;49.678;24.560;2022-09-09T04:11:51;8.45;;;4.28;;
45326;SDS011;31062;49.678;24.560;2022-09-09T04:14:38;7.25;;;5.13;;
45326;SDS011;31062;49.678;24.560;2022-09-09T04:17:25;6.25;;;4.55;;
45326;SDS011;31062;49.678;24.560;2022-09-09T04:20:10;8.30;;;4.35;;
45326;SDS011;31062;49.678;24.560;2022-09-09T04:22:57;6.15;;;4.50;;
45326;SDS011;31062;49.678;24.560;2022-09-09T04:25:46;11.45;;;5.03;;
45326;SDS011;31062;49.678;24.560;2022-09-09T04:28:34;7.40;;;4.63;;
45326;SDS011;31062;49.678;24.560;2022-09-09T04:31:24;8.10;;;4.78;;
45326;SDS011;31062;49.678;24.560;2022-09-09T04:34:13;8.13;;;4.07;;
45326;SDS011;31062;49.678;24.560;2022-09-09T04:36:58;6.47;;;4.35;;
45326;SDS011;31062;49.678;24.560;2022-09-09T04:39:45;10.23;;;4.82;;
45326;SDS011;31062;49.678;24.560;2022-09-09T04:42:34;16.77;;;4.35;;
45326;SDS011;31062;49.678;24.560;2022-09-09T04:48:08;15.48;;;4.40;;
45326;SDS011;31062;49.678;24.560;2022-09-09T04:53:42;9.50;;;4.20;;
45326;SDS011;31062;49.678;24.560;2022-09-09T04:56:29;5.78;;;4.05;;
45326;SDS011;31062;49.678;24.560;2022-09-09T04:59:16;5.40;;;3.70;;
45326;SDS011;31062;49.678;24.560;2022-09-09T05:02:05;6.65;;;4.05;;
45326;SDS011;31062;49.678;24.560;2022-09-09T05:04:51;11.02;;;4.43;;
45326;SDS011;31062;49.678;24.560;2022-09-09T05:07:37;6.40;;;4.45;;
45326;SDS011;31062;49.678;24.560;2022-09-09T05:10:22;8.32;;;4.40;;
45326;SDS011;31062;49.678;24.560;2022-09-09T05:13:08;5.20;;;3.85;;
45326;SDS011;31062;49.678;24.560;2022-09-09T05:15:54;10.00;;;4.18;;
45326;SDS011;31062;49.678;24.560;2022-09-09T05:18:40;11.48;;;4.97;;
45326;SDS011;31062;49.678;24.560;2022-09-09T05:21:28;9.95;;;4.47;;
45326;SDS011;31062;49.678;24.560;2022-09-09T05:24:16;6.72;;;4.65;;
45326;SDS011;31062;49.678;24.560;2022-09-09T05:27:03;13.07;;;5.05;;
45326;SDS011;31062;49.678;24.560;2022-09-09T05:29:51;12.38;;;4.43;;
45326;SDS011;31062;49.678;24.560;2022-09-09T05:32:36;12.73;;;4.75;;
45326;SDS011;31062;49.678;24.560;2022-09-09T05:35:22;8.32;;;4.78;;
45326;SDS011;31062;49.678;24.560;2022-09-09T05:38:08;9.07;;;5.22;;
45326;SDS011;31062;49.678;24.560;2022-09-09T05:40:53;10.52;;;5.45;;
45326;SDS011;31062;49.678;24.560;2022-09-09T05:43:39;8.90;;;4.75;;
45326;SDS011;31062;49.678;24.560;2022-09-09T05:46:24;8.13;;;4.88;;
45326;SDS011;31062;49.678;24.560;2022-09-09T05:49:13;8.45;;;4.07;;
45326;SDS011;31062;49.678;24.560;2022-09-09T05:52:01;9.27;;;4.78;;
45326;SDS011;31062;49.678;24.560;2022-09-09T05:54:49;7.13;;;4.50;;
45326;SDS011;31062;49.678;24.560;2022-09-09T05:57:34;6.65;;;4.57;;
45326;SDS011;31062;49.678;24.560;2022-09-09T06:00:21;18.25;;;4.90;;
45326;SDS011;31062;49.678;24.560;2022-09-09T06:03:08;9.02;;;4.50;;
45326;SDS011;31062;49.678;24.560;2022-09-09T06:06:00;13.65;;;4.68;;
45326;SDS011;31062;49.678;24.560;2022-09-09T06:08:47;12.65;;;5.28;;
45326;SDS011;31062;49.678;24.560;2022-09-09T06:11:36;11.27;;;4.85;;
45326;SDS011;31062;49.678;24.560;2022-09-09T06:14:23;6.90;;;5.28;;
45326;SDS011;31062;49.678;24.560;2022-09-09T06:17:11;7.53;;;5.28;;
45326;SDS011;31062;49.678;24.560;2022-09-09T06:19:57;11.27;;;5.30;;
45326;SDS011;31062;49.678;24.560;2022-09-09T06:22:42;8.00;;;5.25;;
45326;SDS011;31062;49.678;24.560;2022-09-09T06:25:28;15.63;;;4.85;;
45326;SDS011;31062;49.678;24.560;2022-09-09T06:28:14;20.05;;;5.45;;
45326;SDS011;31062;49.678;24.560;2022-09-09T06:31:01;11.20;;;5.05;;
45326;SDS011;31062;49.678;24.560;2022-09-09T06:33:52;11.18;;;6.57;;
45326;SDS011;31062;49.678;24.560;2022-09-09T06:36:42;11.68;;;4.93;;
45326;SDS011;31062;49.678;24.560;2022-09-09T06:39:27;10.70;;;4.85;;
45326;SDS011;31062;49.678;24.560;2022-09-09T06:42:14;7.53;;;4.88;;
45326;SDS011;31062;49.678;24.560;2022-09-09T06:45:03;11.68;;;4.88;;
45326;SDS011;31062;49.678;24.560;2022-09-09T06:48:01;17.80;;;5.40;;
45326;SDS011;31062;49.678;24.560;2022-09-09T06:50:47;7.80;;;4.50;;
45326;SDS011;31062;49.678;24.560;2022-09-09T06:53:37;8.38;;;5.03;;
45326;SDS011;31062;49.678;24.560;2022-09-09T06:56:25;8.65;;;5.60;;
45326;SDS011;31062;49.678;24.560;2022-09-09T06:59:14;5.65;;;5.07;;
45326;SDS011;31062;49.678;24.560;2022-09-09T07:02:02;10.60;;;5.43;;
45326;SDS011;31062;49.678;24.560;2022-09-09T07:04:49;11.40;;;5.75;;
45326;SDS011;31062;49.678;24.560;2022-09-09T07:07:36;14.48;;;6.28;;
45326;SDS011;31062;49.678;24.560;2022-09-09T07:10:23;17.25;;;8.70;;
45326;SDS011;31062;49.678;24.560;2022-09-09T07:13:09;10.93;;;7.13;;
45326;SDS011;31062;49.678;24.560;2022-09-09T07:16:03;10.27;;;6.32;;
45326;SDS011;31062;49.678;24.560;2022-09-09T07:18:56;10.48;;;5.88;;
45326;SDS011;31062;49.678;24.560;2022-09-09T07:21:46;15.07;;;6.18;;
45326;SDS011;31062;49.678;24.560;2022-09-09T07:24:35;12.20;;;5.75;;
45326;SDS011;31062;49.678;24.560;2022-09-09T07:27:22;9.57;;;6.15;;
45326;SDS011;31062;49.678;24.560;2022-09-09T07:30:08;10.07;;;5.82;;
45326;SDS011;31062;49.678;24.560;2022-09-09T07:32:55;9.15;;;5.97;;
45326;SDS011;31062;49.678;24.560;2022-09-09T07:35:42;10.43;;;6.28;;
45326;SDS011;31062;49.678;24.560;2022-09-09T07:38:38;10.73;;;6.90;;
45326;SDS011;31062;49.678;24.560;2022-09-09T07:41:31;10.88;;;6.50;;
45326;SDS011;31062;49.678;24.560;2022-09-09T07:50:05;12.07;;;6.78;;
45326;SDS011;31062;49.678;24.560;2022-09-09T07:52:52;14.88;;;6.80;;
45326;SDS011;31062;49.678;24.560;2022-09-09T07:55:39;16.35;;;6.85;;
45326;SDS011;31062;49.678;24.560;2022-09-09T07:58:26;12.65;;;6.53;;
45326;SDS011;31062;49.678;24.560;2022-09-09T08:01:13;15.00;;;6.55;;
45326;SDS011;31062;49.678;24.560;2022-09-09T08:04:04;17.50;;;7.28;;
45326;SDS011;31062;49.678;24.560;2022-09-09T08:06:54;10.90;;;6.82;;
45326;SDS011;31062;49.678;24.560;2022-09-09T08:09:43;15.63;;;7.20;;
45326;SDS011;31062;49.678;24.560;2022-09-09T08:12:35;12.40;;;7.47;;
45326;SDS011;31062;49.678;24.560;2022-09-09T08:15:21;14.38;;;7.78;;
45326;SDS011;31062;49.678;24.560;2022-09-09T08:18:06;11.63;;;6.97;;
45326;SDS011;31062;49.678;24.560;2022-09-09T08:20:52;14.98;;;7.05;;
45326;SDS011;31062;49.678;24.560;2022-09-09T08:23:41;16.35;;;7.80;;
45326;SDS011;31062;49.678;24.560;2022-09-09T08:26:33;17.83;;;6.80;;
45326;SDS011;31062;49.678;24.560;2022-09-09T08:29:29;15.73;;;8.23;;
45326;SDS011;31062;49.678;24.560;2022-09-09T08:32:25;17.85;;;8.27;;
45326;SDS011;31062;49.678;24.560;2022-09-09T08:35:13;15.77;;;8.25;;
45326;SDS011;31062;49.678;24.560;2022-09-09T08:37:58;21.73;;;8.88;;
45326;SDS011;31062;49.678;24.560;2022-09-09T08:40:44;13.35;;;8.52;;
45326;SDS011;31062;49.678;24.560;2022-09-09T08:43:36;17.15;;;8.27;;
45326;SDS011;31062;49.678;24.560;2022-09-09T08:46:32;10.60;;;7.20;;
45326;SDS011;31062;49.678;24.560;2022-09-09T09:13:12;17.17;;;8.27;;
45326;SDS011;31062;49.678;24.560;2022-09-09T09:16:03;14.70;;;7.30;;
45326;SDS011;31062;49.678;24.560;2022-09-09T09:18:58;10.77;;;6.75;;
45326;SDS011;31062;49.678;24.560;2022-09-09T09:21:51;11.05;;;7.20;;
45326;SDS011;31062;49.678;24.560;2022-09-09T09:30:42;13.18;;;8.57;;
45326;SDS011;31062;49.678;24.560;2022-09-09T09:36:38;20.58;;;8.30;;
45326;SDS011;31062;49.678;24.560;2022-09-09T09:39:26;9.02;;;8.00;;
45326;SDS011;31062;49.678;24.560;2022-09-09T09:42:33;13.48;;;7.88;;
45326;SDS011;31062;49.678;24.560;2022-09-09T09:48:15;19.48;;;9.60;;
45326;SDS011;31062;49.678;24.560;2022-09-09T09:51:07;19.08;;;11.00;;
45326;SDS011;31062;49.678;24.560;2022-09-09T09:54:07;19.88;;;10.60;;
45326;SDS011;31062;49.678;24.560;2022-09-09T09:57:25;23.13;;;16.27;;
45326;SDS011;31062;49.678;24.560;2022-09-09T10:00:22;26.73;;;20.77;;
45326;SDS011;31062;49.678;24.560;2022-09-09T10:03:22;16.98;;;11.43;;
45326;SDS011;31062;49.678;24.560;2022-09-09T10:06:11;18.63;;;9.73;;
45326;SDS011;31062;49.678;24.560;2022-09-09T10:08:56;17.67;;;8.88;;
45326;SDS011;31062;49.678;24.560;2022-09-09T10:17:53;14.77;;;8.80;;
45326;SDS011;31062;49.678;24.560;2022-09-09T10:20:54;15.73;;;8.93;;
45326;SDS011;31062;49.678;24.560;2022-09-09T10:33:28;15.98;;;9.73;;
45326;SDS011;31062;49.678;24.560;2022-09-09T10:36:25;13.10;;;9.25;;
45326;SDS011;31062;49.678;24.560;2022-09-09T10:39:32;16.30;;;9.10;;
45326;SDS011;31062;49.678;24.560;2022-09-09T10:42:28;15.90;;;9.68;;
45326;SDS011;31062;49.678;24.560;2022-09-09T10:45:21;17.65;;;12.32;;
45326;SDS011;31062;49.678;24.560;2022-09-09T10:57:56;20.90;;;13.32;;
45326;SDS011;31062;49.678;24.560;2022-09-09T11:00:56;18.13;;;13.85;;
45326;SDS011;31062;49.678;24.560;2022-09-09T11:03:49;19.02;;;11.55;;
45326;SDS011;31062;49.678;24.560;2022-09-09T11:06:46;21.05;;;11.48;;
45326;SDS011;31062;49.678;24.560;2022-09-09T11:09:46;14.90;;;10.30;;
45326;SDS011;31062;49.678;24.560;2022-09-09T11:12:38;16.90;;;10.00;;
45326;SDS011;31062;49.678;24.560;2022-09-09T11:15:39;12.17;;;9.57;;
45326;SDS011;31062;49.678;24.560;2022-09-09T11:18:29;10.90;;;9.70;;
45326;SDS011;31062;49.678;24.560;2022-09-09T11:21:24;13.00;;;9.95;;
45326;SDS011;31062;49.678;24.560;2022-09-09T11:27:15;14.00;;;9.77;;
45326;SDS011;31062;49.678;24.560;2022-09-09T11:40:25;14.48;;;9.80;;
45326;SDS011;31062;49.678;24.560;2022-09-09T11:43:19;12.27;;;9.68;;
45326;SDS011;31062;49.678;24.560;2022-09-09T11:46:37;11.85;;;9.43;;
45326;SDS011;31062;49.678;24.560;2022-09-09T11:49:26;13.75;;;11.82;;
45326;SDS011;31062;49.678;24.560;2022-09-09T11:55:24;16.10;;;10.45;;
45326;SDS011;31062;49.678;24.560;2022-09-09T12:00:58;15.85;;;10.70;;
45326;SDS011;31062;49.678;24.560;2022-09-09T12:03:48;22.35;;;10.68;;
45326;SDS011;31062;49.678;24.560;2022-09-09T12:06:44;16.42;;;10.25;;
45326;SDS011;31062;49.678;24.560;2022-09-09T12:09:48;16.42;;;10.90;;
45326;SDS011;31062;49.678;24.560;2022-09-09T12:12:38;12.80;;;9.38;;
45326;SDS011;31062;49.678;24.560;2022-09-09T12:15:28;13.88;;;10.75;;
45326;SDS011;31062;49.678;24.560;2022-09-09T12:18:15;15.43;;;10.65;;
45326;SDS011;31062;49.678;24.560;2022-09-09T12:22:13;14.50;;;10.63;;
45326;SDS011;31062;49.678;24.560;2022-09-09T12:24:41;13.20;;;10.57;;
45326;SDS011;31062;49.678;24.560;2022-09-09T12:27:34;13.80;;;10.70;;
45326;SDS011;31062;49.678;24.560;2022-09-09T12:30:28;15.95;;;9.98;;
45326;SDS011;31062;49.678;24.560;2022-09-09T12:33:19;19.92;;;10.95;;
45326;SDS011;31062;49.678;24.560;2022-09-09T12:36:07;17.67;;;11.73;;
45326;SDS011;31062;49.678;24.560;2022-09-09T12:38:59;14.97;;;10.27;;
45326;SDS011;31062;49.678;24.560;2022-09-09T12:44:58;12.52;;;10.20;;
45326;SDS011;31062;49.678;24.560;2022-09-09T12:48:07;12.40;;;10.27;;
45326;SDS011;31062;49.678;24.560;2022-09-09T12:50:53;12.88;;;10.77;;
45326;SDS011;31062;49.678;24.560;2022-09-09T12:53:41;21.25;;;10.38;;
45326;SDS011;31062;49.678;24.560;2022-09-09T12:56:27;15.45;;;11.10;;
45326;SDS011;31062;49.678;24.560;2022-09-09T12:59:23;13.75;;;10.98;;
45326;SDS011;31062;49.678;24.560;2022-09-09T13:02:18;13.27;;;10.82;;
45326;SDS011;31062;49.678;24.560;2022-09-09T13:05:14;12.90;;;11.07;;
45326;SDS011;31062;49.678;24.560;2022-09-09T13:08:06;15.35;;;11.05;;
45326;SDS011;31062;49.678;24.560;2022-09-09T13:11:02;14.10;;;10.63;;
45326;SDS011;31062;49.678;24.560;2022-09-09T13:13:54;16.58;;;9.88;;
45326;SDS011;31062;49.678;24.560;2022-09-09T13:16:41;13.48;;;11.02;;
45326;SDS011;31062;49.678;24.560;2022-09-09T13:19:28;13.18;;;10.95;;
45326;SDS011;31062;49.678;24.560;2022-09-09T13:25:24;14.05;;;11.23;;
45326;SDS011;31062;49.678;24.560;2022-09-09T13:28:20;14.82;;;11.05;;
45326;SDS011;31062;49.678;24.560;2022-09-09T13:31:19;16.33;;;10.27;;
45326;SDS011;31062;49.678;24.560;2022-09-09T13:37:37;14.90;;;10.25;;
45326;SDS011;31062;49.678;24.560;2022-09-09T13:40:23;17.30;;;10.60;;
45326;SDS011;31062;49.678;24.560;2022-09-09T13:43:14;15.88;;;10.75;;
45326;SDS011;31062;49.678;24.560;2022-09-09T13:46:21;15.57;;;11.27;;
45326;SDS011;31062;49.678;24.560;2022-09-09T13:52:10;12.98;;;11.35;;
45326;SDS011;31062;49.678;24.560;2022-09-09T13:55:02;19.00;;;11.68;;
45326;SDS011;31062;49.678;24.560;2022-09-09T13:57:51;15.32;;;11.50;;
45326;SDS011;31062;49.678;24.560;2022-09-09T14:00:36;12.30;;;10.70;;
45326;SDS011;31062;49.678;24.560;2022-09-09T14:03:22;16.08;;;11.45;;
45326;SDS011;31062;49.678;24.560;2022-09-09T14:06:09;17.27;;;12.43;;
45326;SDS011;31062;49.678;24.560;2022-09-09T14:08:55;18.02;;;11.10;;
45326;SDS011;31062;49.678;24.560;2022-09-09T14:11:41;16.55;;;12.13;;
45326;SDS011;31062;49.678;24.560;2022-09-09T14:14:28;15.38;;;11.27;;
45326;SDS011;31062;49.678;24.560;2022-09-09T14:17:13;14.82;;;10.90;;
45326;SDS011;31062;49.678;24.560;2022-09-09T14:20:00;18.30;;;11.70;;
45326;SDS011;31062;49.678;24.560;2022-09-09T14:22:45;17.63;;;11.25;;
45326;SDS011;31062;49.678;24.560;2022-09-09T14:25:31;15.55;;;11.38;;
45326;SDS011;31062;49.678;24.560;2022-09-09T14:28:18;13.60;;;11.05;;
45326;SDS011;31062;49.678;24.560;2022-09-09T14:31:23;15.30;;;12.10;;
45326;SDS011;31062;49.678;24.560;2022-09-09T14:34:10;12.27;;;10.48;;
45326;SDS011;31062;49.678;24.560;2022-09-09T14:36:56;17.02;;;11.55;;
45326;SDS011;31062;49.678;24.560;2022-09-09T14:39:42;14.13;;;12.27;;
45326;SDS011;31062;49.678;24.560;2022-09-09T14:42:29;13.13;;;11.75;;
45326;SDS011;31062;49.678;24.560;2022-09-09T14:45:15;15.95;;;13.05;;
45326;SDS011;31062;49.678;24.560;2022-09-09T14:48:02;18.73;;;12.65;;
45326;SDS011;31062;49.678;24.560;2022-09-09T14:50:49;16.88;;;12.07;;
45326;SDS011;31062;49.678;24.560;2022-09-09T14:53:34;15.07;;;11.90;;
45326;SDS011;31062;49.678;24.560;2022-09-09T14:56:21;20.25;;;11.43;;
45326;SDS011;31062;49.678;24.560;2022-09-09T14:59:08;15.07;;;12.35;;
45326;SDS011;31062;49.678;24.560;2022-09-09T15:01:53;19.92;;;12.93;;
45326;SDS011;31062;49.678;24.560;2022-09-09T15:04:39;14.82;;;12.25;;
45326;SDS011;31062;49.678;24.560;2022-09-09T15:07:24;14.68;;;10.90;;
45326;SDS011;31062;49.678;24.560;2022-09-09T15:10:12;17.48;;;12.25;;
45326;SDS011;31062;49.678;24.560;2022-09-09T15:12:57;19.42;;;11.80;;
45326;SDS011;31062;49.678;24.560;2022-09-09T15:15:43;16.77;;;12.73;;
45326;SDS011;31062;49.678;24.560;2022-09-09T15:18:28;15.60;;;12.32;;
45326;SDS011;31062;49.678;24.560;2022-09-09T15:21:15;17.98;;;11.55;;
45326;SDS011;31062;49.678;24.560;2022-09-09T15:24:02;16.52;;;11.65;;
45326;SDS011;31062;49.678;24.560;2022-09-09T15:26:49;20.58;;;12.10;;
45326;SDS011;31062;49.678;24.560;2022-09-09T15:29:35;16.55;;;12.07;;
45326;SDS011;31062;49.678;24.560;2022-09-09T15:32:20;17.75;;;12.27;;
45326;SDS011;31062;49.678;24.560;2022-09-09T15:35:06;17.02;;;12.43;;
45326;SDS011;31062;49.678;24.560;2022-09-09T15:38:02;16.60;;;12.52;;
45326;SDS011;31062;49.678;24.560;2022-09-09T15:40:56;17.80;;;12.38;;
45326;SDS011;31062;49.678;24.560;2022-09-09T15:43:43;15.57;;;12.15;;
45326;SDS011;31062;49.678;24.560;2022-09-09T15:46:35;16.65;;;12.32;;
45326;SDS011;31062;49.678;24.560;2022-09-09T15:49:23;14.75;;;11.05;;
45326;SDS011;31062;49.678;24.560;2022-09-09T15:52:11;15.65;;;11.95;;
45326;SDS011;31062;49.678;24.560;2022-09-09T15:54:57;15.75;;;11.90;;
45326;SDS011;31062;49.678;24.560;2022-09-09T15:57:43;16.48;;;11.95;;
45326;SDS011;31062;49.678;24.560;2022-09-09T16:00:29;13.15;;;11.50;;
45326;SDS011;31062;49.678;24.560;2022-09-09T16:03:14;17.40;;;11.82;;
45326;SDS011;31062;49.678;24.560;2022-09-09T16:06:00;21.25;;;13.23;;
45326;SDS011;31062;49.678;24.560;2022-09-09T16:08:47;18.13;;;12.75;;
45326;SDS011;31062;49.678;24.560;2022-09-09T16:11:38;15.55;;;11.55;;
45326;SDS011;31062;49.678;24.560;2022-09-09T16:14:24;15.52;;;11.52;;
45326;SDS011;31062;49.678;24.560;2022-09-09T16:17:11;17.90;;;11.55;;
45326;SDS011;31062;49.678;24.560;2022-09-09T16:19:57;19.10;;;12.20;;
45326;SDS011;31062;49.678;24.560;2022-09-09T16:22:42;15.80;;;13.05;;
45326;SDS011;31062;49.678;24.560;2022-09-09T16:25:28;17.25;;;11.88;;
45326;SDS011;31062;49.678;24.560;2022-09-09T16:28:14;17.08;;;12.20;;
45326;SDS011;31062;49.678;24.560;2022-09-09T16:31:03;14.80;;;12.00;;
45326;SDS011;31062;49.678;24.560;2022-09-09T16:33:50;18.17;;;12.35;;
45326;SDS011;31062;49.678;24.560;2022-09-09T16:36:37;20.95;;;12.95;;
45326;SDS011;31062;49.678;24.560;2022-09-09T16:39:26;16.23;;;12.93;;
45326;SDS011;31062;49.678;24.560;2022-09-09T16:42:12;15.57;;;13.05;;
45326;SDS011;31062;49.678;24.560;2022-09-09T16:44:57;16.63;;;13.07;;
45326;SDS011;31062;49.678;24.560;2022-09-09T16:47:43;17.17;;;12.30;;
45326;SDS011;31062;49.678;24.560;2022-09-09T16:50:30;17.33;;;11.95;;
45326;SDS011;31062;49.678;24.560;2022-09-09T16:53:16;16.05;;;11.85;;
45326;SDS011;31062;49.678;24.560;2022-09-09T16:56:08;18.85;;;12.95;;
45326;SDS011;31062;49.678;24.560;2022-09-09T16:58:56;14.65;;;11.57;;
45326;SDS011;31062;49.678;24.560;2022-09-09T17:01:44;15.32;;;11.18;;
45326;SDS011;31062;49.678;24.560;2022-09-09T17:04:31;14.63;;;10.93;;
45326;SDS011;31062;49.678;24.560;2022-09-09T17:07:17;13.80;;;11.65;;
45326;SDS011;31062;49.678;24.560;2022-09-09T17:10:05;14.18;;;11.68;;
45326;SDS011;31062;49.678;24.560;2022-09-09T17:12:51;13.10;;;10.63;;
45326;SDS011;31062;49.678;24.560;2022-09-09T17:15:40;15.60;;;12.35;;
45326;SDS011;31062;49.678;24.560;2022-09-09T17:18:28;14.23;;;11.70;;
45326;SDS011;31062;49.678;24.560;2022-09-09T17:21:14;13.40;;;11.30;;
45326;SDS011;31062;49.678;24.560;2022-09-09T17:24:02;14.93;;;11.68;;
45326;SDS011;31062;49.678;24.560;2022-09-09T17:26:48;18.75;;;12.27;;
45326;SDS011;31062;49.678;24.560;2022-09-09T17:29:34;18.17;;;11.93;;
45326;SDS011;31062;49.678;24.560;2022-09-09T17:32:21;16.02;;;11.85;;
45326;SDS011;31062;49.678;24.560;2022-09-09T17:35:07;16.65;;;11.52;;
45326;SDS011;31062;49.678;24.560;2022-09-09T17:37:54;16.25;;;11.32;;
45326;SDS011;31062;49.678;24.560;2022-09-09T17:40:40;13.70;;;11.15;;
45326;SDS011;31062;49.678;24.560;2022-09-09T17:43:25;60.35;;;46.88;;
45326;SDS011;31062;49.678;24.560;2022-09-09T17:46:12;18.35;;;16.35;;
45326;SDS011;31062;49.678;24.560;2022-09-09T17:49:04;16.08;;;13.25;;
45326;SDS011;31062;49.678;24.560;2022-09-09T17:51:55;22.40;;;13.35;;
45326;SDS011;31062;49.678;24.560;2022-09-09T17:54:41;18.50;;;12.52;;
45326;SDS011;31062;49.678;24.560;2022-09-09T17:57:26;13.43;;;11.82;;
45326;SDS011;31062;49.678;24.560;2022-09-09T18:00:13;15.30;;;12.02;;
45326;SDS011;31062;49.678;24.560;2022-09-09T18:03:01;19.10;;;12.65;;
45326;SDS011;31062;49.678;24.560;2022-09-09T18:05:47;16.13;;;12.43;;
45326;SDS011;31062;49.678;24.560;2022-09-09T18:08:33;18.88;;;13.00;;
45326;SDS011;31062;49.678;24.560;2022-09-09T18:11:21;16.33;;;13.43;;
45326;SDS011;31062;49.678;24.560;2022-09-09T18:14:11;19.73;;;13.43;;
45326;SDS011;31062;49.678;24.560;2022-09-09T18:17:00;15.52;;;12.90;;
45326;SDS011;31062;49.678;24.560;2022-09-09T18:19:48;16.95;;;12.15;;
45326;SDS011;31062;49.678;24.560;2022-09-09T18:22:34;19.02;;;13.38;;
45326;SDS011;31062;49.678;24.560;2022-09-09T18:25:19;19.20;;;14.35;;
45326;SDS011;31062;49.678;24.560;2022-09-09T18:28:06;24.90;;;14.40;;
45326;SDS011;31062;49.678;24.560;2022-09-09T18:30:52;22.73;;;14.32;;
45326;SDS011;31062;49.678;24.560;2022-09-09T18:33:39;20.73;;;14.13;;
45326;SDS011;31062;49.678;24.560;2022-09-09T18:36:28;22.15;;;15.18;;
45326;SDS011;31062;49.678;24.560;2022-09-09T18:39:17;23.17;;;14.48;;
45326;SDS011;31062;49.678;24.560;2022-09-09T18:42:04;19.25;;;15.85;;
45326;SDS011;31062;49.678;24.560;2022-09-09T18:44:51;22.80;;;15.98;;
45326;SDS011;31062;49.678;24.560;2022-09-09T18:47:37;23.80;;;15.32;;
45326;SDS011;31062;49.678;24.560;2022-09-09T18:50:22;31.98;;;16.67;;
45326;SDS011;31062;49.678;24.560;2022-09-09T18:53:08;25.92;;;16.90;;
45326;SDS011;31062;49.678;24.560;2022-09-09T18:55:59;28.02;;;17.90;;
45326;SDS011;31062;49.678;24.560;2022-09-09T18:58:46;20.80;;;16.17;;
45326;SDS011;31062;49.678;24.560;2022-09-09T19:01:36;26.05;;;16.20;;
45326;SDS011;31062;49.678;24.560;2022-09-09T19:04:24;26.02;;;17.02;;
45326;SDS011;31062;49.678;24.560;2022-09-09T19:07:12;24.17;;;16.20;;